sensor_id;sensor_type;location;lat;lon;timestamp;P1;durP1;ratioP1;P2;durP2;ratioP2
65045;SDS011;54657;52.022;5.534;2023-08-21T00:01:56;3.70;;;1.73;;
65045;SDS011;54657;52.022;5.534;2023-08-21T00:04:23;7.15;;;2.10;;
65045;SDS011;54657;52.022;5.534;2023-08-21T00:06:48;4.60;;;2.17;;
65045;SDS011;54657;52.022;5.534;2023-08-21T00:09:14;4.70;;;1.77;;
65045;SDS011;54657;52.022;5.534;2023-08-21T00:11:39;3.17;;;1.60;;
65045;SDS011;54657;52.022;5.534;2023-08-21T00:14:05;3.63;;;1.90;;
65045;SDS011;54657;52.022;5.534;2023-08-21T00:16:31;6.15;;;2.00;;
65045;SDS011;54657;52.022;5.534;2023-08-21T00:18:57;5.28;;;1.90;;
65045;SDS011;54657;52.022;5.534;2023-08-21T00:21:23;4.07;;;1.63;;
65045;SDS011;54657;52.022;5.534;2023-08-21T00:23:48;3.35;;;2.00;;
65045;SDS011;54657;52.022;5.534;2023-08-21T00:26:14;3.92;;;1.52;;
65045;SDS011;54657;52.022;5.534;2023-08-21T00:28:40;4.85;;;1.90;;
65045;SDS011;54657;52.022;5.534;2023-08-21T00:31:05;3.28;;;1.95;;
65045;SDS011;54657;52.022;5.534;2023-08-21T00:33:31;7.35;;;1.45;;
65045;SDS011;54657;52.022;5.534;2023-08-21T00:35:57;3.28;;;1.75;;
65045;SDS011;54657;52.022;5.534;2023-08-21T00:38:23;4.38;;;1.80;;
65045;SDS011;54657;52.022;5.534;2023-08-21T00:40:49;4.72;;;1.67;;
65045;SDS011;54657;52.022;5.534;2023-08-21T00:43:15;3.72;;;1.90;;
65045;SDS011;54657;52.022;5.534;2023-08-21T00:45:41;4.60;;;1.73;;
65045;SDS011;54657;52.022;5.534;2023-08-21T00:48:09;4.50;;;1.75;;
65045;SDS011;54657;52.022;5.534;2023-08-21T00:50:36;3.25;;;1.70;;
65045;SDS011;54657;52.022;5.534;2023-08-21T00:53:03;5.57;;;2.17;;
65045;SDS011;54657;52.022;5.534;2023-08-21T00:55:29;4.68;;;1.80;;
65045;SDS011;54657;52.022;5.534;2023-08-21T00:57:56;5.40;;;2.00;;
65045;SDS011;54657;52.022;5.534;2023-08-21T01:00:22;3.75;;;1.70;;
65045;SDS011;54657;52.022;5.534;2023-08-21T01:02:49;6.05;;;1.77;;
65045;SDS011;54657;52.022;5.534;2023-08-21T01:05:17;6.20;;;1.70;;
65045;SDS011;54657;52.022;5.534;2023-08-21T01:07:47;5.95;;;1.60;;
65045;SDS011;54657;52.022;5.534;2023-08-21T01:13:22;5.60;;;1.52;;
65045;SDS011;54657;52.022;5.534;2023-08-21T01:15:58;3.80;;;1.75;;
65045;SDS011;54657;52.022;5.534;2023-08-21T01:18:24;6.45;;;1.63;;
65045;SDS011;54657;52.022;5.534;2023-08-21T01:20:53;3.65;;;1.67;;
65045;SDS011;54657;52.022;5.534;2023-08-21T01:25:58;5.95;;;1.75;;
65045;SDS011;54657;52.022;5.534;2023-08-21T01:28:24;4.05;;;1.50;;
65045;SDS011;54657;52.022;5.534;2023-08-21T01:30:50;4.03;;;1.75;;
65045;SDS011;54657;52.022;5.534;2023-08-21T01:33:19;4.13;;;1.80;;
65045;SDS011;54657;52.022;5.534;2023-08-21T01:35:47;3.35;;;1.63;;
65045;SDS011;54657;52.022;5.534;2023-08-21T01:38:14;7.15;;;1.83;;
65045;SDS011;54657;52.022;5.534;2023-08-21T01:40:39;5.13;;;1.45;;
65045;SDS011;54657;52.022;5.534;2023-08-21T01:43:05;2.35;;;1.45;;
65045;SDS011;54657;52.022;5.534;2023-08-21T01:45:31;5.38;;;1.50;;
65045;SDS011;54657;52.022;5.534;2023-08-21T01:47:56;3.08;;;1.63;;
65045;SDS011;54657;52.022;5.534;2023-08-21T01:50:22;3.13;;;1.48;;
65045;SDS011;54657;52.022;5.534;2023-08-21T01:52:48;3.30;;;1.45;;
65045;SDS011;54657;52.022;5.534;2023-08-21T01:55:13;3.88;;;1.50;;
65045;SDS011;54657;52.022;5.534;2023-08-21T01:57:39;4.22;;;1.50;;
65045;SDS011;54657;52.022;5.534;2023-08-21T02:00:05;2.42;;;1.40;;
65045;SDS011;54657;52.022;5.534;2023-08-21T02:02:32;4.10;;;1.40;;
65045;SDS011;54657;52.022;5.534;2023-08-21T02:04:57;5.32;;;1.58;;
65045;SDS011;54657;52.022;5.534;2023-08-21T02:07:23;3.97;;;1.55;;
65045;SDS011;54657;52.022;5.534;2023-08-21T02:09:48;5.50;;;1.85;;
65045;SDS011;54657;52.022;5.534;2023-08-21T02:12:14;2.78;;;1.65;;
65045;SDS011;54657;52.022;5.534;2023-08-21T02:14:39;4.07;;;1.52;;
65045;SDS011;54657;52.022;5.534;2023-08-21T02:17:05;5.07;;;1.73;;
65045;SDS011;54657;52.022;5.534;2023-08-21T02:19:30;2.78;;;1.48;;
65045;SDS011;54657;52.022;5.534;2023-08-21T02:21:56;3.17;;;1.60;;
65045;SDS011;54657;52.022;5.534;2023-08-21T02:24:21;2.88;;;1.52;;
65045;SDS011;54657;52.022;5.534;2023-08-21T02:26:47;3.05;;;1.63;;
65045;SDS011;54657;52.022;5.534;2023-08-21T02:29:13;5.53;;;1.50;;
65045;SDS011;54657;52.022;5.534;2023-08-21T02:31:38;5.15;;;1.70;;
65045;SDS011;54657;52.022;5.534;2023-08-21T02:34:04;2.67;;;1.52;;
65045;SDS011;54657;52.022;5.534;2023-08-21T02:36:30;4.55;;;1.70;;
65045;SDS011;54657;52.022;5.534;2023-08-21T02:38:55;5.63;;;1.75;;
65045;SDS011;54657;52.022;5.534;2023-08-21T02:41:21;4.43;;;1.70;;
65045;SDS011;54657;52.022;5.534;2023-08-21T02:43:47;6.22;;;1.70;;
65045;SDS011;54657;52.022;5.534;2023-08-21T02:46:12;6.32;;;2.00;;
65045;SDS011;54657;52.022;5.534;2023-08-21T02:48:38;3.90;;;1.85;;
65045;SDS011;54657;52.022;5.534;2023-08-21T02:51:03;3.58;;;1.60;;
65045;SDS011;54657;52.022;5.534;2023-08-21T02:53:29;3.50;;;1.58;;
65045;SDS011;54657;52.022;5.534;2023-08-21T02:55:54;3.15;;;1.52;;
65045;SDS011;54657;52.022;5.534;2023-08-21T02:58:20;3.45;;;1.48;;
65045;SDS011;54657;52.022;5.534;2023-08-21T03:00:46;4.95;;;1.73;;
65045;SDS011;54657;52.022;5.534;2023-08-21T03:03:11;3.92;;;1.85;;
65045;SDS011;54657;52.022;5.534;2023-08-21T03:05:37;4.00;;;1.63;;
65045;SDS011;54657;52.022;5.534;2023-08-21T03:08:02;2.67;;;1.92;;
65045;SDS011;54657;52.022;5.534;2023-08-21T03:10:28;4.63;;;1.63;;
65045;SDS011;54657;52.022;5.534;2023-08-21T03:12:58;3.00;;;1.52;;
65045;SDS011;54657;52.022;5.534;2023-08-21T03:15:24;3.53;;;1.70;;
65045;SDS011;54657;52.022;5.534;2023-08-21T03:17:49;3.35;;;1.52;;
65045;SDS011;54657;52.022;5.534;2023-08-21T03:20:15;3.75;;;1.33;;
65045;SDS011;54657;52.022;5.534;2023-08-21T03:22:42;3.80;;;1.63;;
65045;SDS011;54657;52.022;5.534;2023-08-21T03:25:08;2.30;;;1.45;;
65045;SDS011;54657;52.022;5.534;2023-08-21T03:27:34;3.33;;;1.60;;
65045;SDS011;54657;52.022;5.534;2023-08-21T03:30:04;4.13;;;1.65;;
65045;SDS011;54657;52.022;5.534;2023-08-21T03:32:31;2.78;;;1.27;;
65045;SDS011;54657;52.022;5.534;2023-08-21T03:34:57;2.40;;;1.40;;
65045;SDS011;54657;52.022;5.534;2023-08-21T03:37:23;4.60;;;1.75;;
65045;SDS011;54657;52.022;5.534;2023-08-21T03:39:48;3.83;;;1.77;;
65045;SDS011;54657;52.022;5.534;2023-08-21T03:42:14;3.45;;;1.50;;
65045;SDS011;54657;52.022;5.534;2023-08-21T03:44:39;3.67;;;1.50;;
65045;SDS011;54657;52.022;5.534;2023-08-21T03:47:05;2.85;;;1.42;;
65045;SDS011;54657;52.022;5.534;2023-08-21T03:49:31;2.60;;;1.42;;
65045;SDS011;54657;52.022;5.534;2023-08-21T03:51:56;2.47;;;1.50;;
65045;SDS011;54657;52.022;5.534;2023-08-21T03:54:22;3.70;;;1.40;;
65045;SDS011;54657;52.022;5.534;2023-08-21T03:56:47;1.98;;;1.45;;
65045;SDS011;54657;52.022;5.534;2023-08-21T03:59:13;3.13;;;1.77;;
65045;SDS011;54657;52.022;5.534;2023-08-21T04:01:38;2.63;;;1.30;;
65045;SDS011;54657;52.022;5.534;2023-08-21T04:04:04;3.22;;;1.38;;
65045;SDS011;54657;52.022;5.534;2023-08-21T04:06:30;2.40;;;1.38;;
65045;SDS011;54657;52.022;5.534;2023-08-21T04:08:55;3.35;;;1.55;;
65045;SDS011;54657;52.022;5.534;2023-08-21T04:11:21;2.40;;;1.48;;
65045;SDS011;54657;52.022;5.534;2023-08-21T04:13:46;3.20;;;1.50;;
65045;SDS011;54657;52.022;5.534;2023-08-21T04:16:12;2.63;;;1.60;;
65045;SDS011;54657;52.022;5.534;2023-08-21T04:18:38;3.83;;;1.70;;
65045;SDS011;54657;52.022;5.534;2023-08-21T04:21:03;2.42;;;1.90;;
65045;SDS011;54657;52.022;5.534;2023-08-21T04:23:29;3.00;;;1.50;;
65045;SDS011;54657;52.022;5.534;2023-08-21T04:26:01;6.72;;;2.10;;
65045;SDS011;54657;52.022;5.534;2023-08-21T04:28:29;7.15;;;1.83;;
65045;SDS011;54657;52.022;5.534;2023-08-21T04:30:56;3.17;;;1.30;;
65045;SDS011;54657;52.022;5.534;2023-08-21T04:33:23;2.15;;;1.55;;
65045;SDS011;54657;52.022;5.534;2023-08-21T04:35:52;2.80;;;1.33;;
65045;SDS011;54657;52.022;5.534;2023-08-21T04:38:18;1.40;;;1.30;;
65045;SDS011;54657;52.022;5.534;2023-08-21T04:40:44;4.75;;;1.50;;
65045;SDS011;54657;52.022;5.534;2023-08-21T04:43:09;2.83;;;1.45;;
65045;SDS011;54657;52.022;5.534;2023-08-21T04:45:35;2.22;;;1.60;;
65045;SDS011;54657;52.022;5.534;2023-08-21T04:48:02;2.92;;;1.48;;
65045;SDS011;54657;52.022;5.534;2023-08-21T04:50:31;3.67;;;1.67;;
65045;SDS011;54657;52.022;5.534;2023-08-21T04:52:56;4.80;;;1.60;;
65045;SDS011;54657;52.022;5.534;2023-08-21T04:55:22;2.72;;;1.38;;
65045;SDS011;54657;52.022;5.534;2023-08-21T04:57:48;1.92;;;1.25;;
65045;SDS011;54657;52.022;5.534;2023-08-21T05:00:14;3.55;;;1.40;;
65045;SDS011;54657;52.022;5.534;2023-08-21T05:02:40;3.60;;;1.58;;
65045;SDS011;54657;52.022;5.534;2023-08-21T05:05:06;4.18;;;1.60;;
65045;SDS011;54657;52.022;5.534;2023-08-21T05:07:34;3.50;;;1.50;;
65045;SDS011;54657;52.022;5.534;2023-08-21T05:10:00;3.17;;;1.73;;
65045;SDS011;54657;52.022;5.534;2023-08-21T05:12:26;3.03;;;1.50;;
65045;SDS011;54657;52.022;5.534;2023-08-21T05:14:51;5.18;;;1.70;;
65045;SDS011;54657;52.022;5.534;2023-08-21T05:17:17;5.45;;;1.60;;
65045;SDS011;54657;52.022;5.534;2023-08-21T05:19:42;3.60;;;1.83;;
65045;SDS011;54657;52.022;5.534;2023-08-21T05:22:08;3.55;;;1.70;;
65045;SDS011;54657;52.022;5.534;2023-08-21T05:24:33;4.40;;;1.77;;
65045;SDS011;54657;52.022;5.534;2023-08-21T05:26:59;6.20;;;1.70;;
65045;SDS011;54657;52.022;5.534;2023-08-21T05:29:24;4.20;;;1.83;;
65045;SDS011;54657;52.022;5.534;2023-08-21T05:31:50;3.67;;;1.63;;
65045;SDS011;54657;52.022;5.534;2023-08-21T05:34:16;4.57;;;1.98;;
65045;SDS011;54657;52.022;5.534;2023-08-21T05:36:41;5.00;;;2.00;;
65045;SDS011;54657;52.022;5.534;2023-08-21T05:39:07;3.85;;;2.05;;
65045;SDS011;54657;52.022;5.534;2023-08-21T05:41:33;4.28;;;2.10;;
65045;SDS011;54657;52.022;5.534;2023-08-21T05:43:59;4.13;;;2.13;;
65045;SDS011;54657;52.022;5.534;2023-08-21T05:46:24;4.95;;;2.20;;
65045;SDS011;54657;52.022;5.534;2023-08-21T05:48:50;4.55;;;2.13;;
65045;SDS011;54657;52.022;5.534;2023-08-21T05:51:15;4.43;;;2.17;;
65045;SDS011;54657;52.022;5.534;2023-08-21T05:53:41;6.75;;;2.30;;
65045;SDS011;54657;52.022;5.534;2023-08-21T05:56:06;3.92;;;2.10;;
65045;SDS011;54657;52.022;5.534;2023-08-21T05:58:32;5.32;;;2.10;;
65045;SDS011;54657;52.022;5.534;2023-08-21T06:00:58;5.57;;;2.10;;
65045;SDS011;54657;52.022;5.534;2023-08-21T06:03:23;5.63;;;1.70;;
65045;SDS011;54657;52.022;5.534;2023-08-21T06:05:49;5.97;;;2.55;;
65045;SDS011;54657;52.022;5.534;2023-08-21T06:08:15;5.80;;;2.42;;
65045;SDS011;54657;52.022;5.534;2023-08-21T06:10:40;5.65;;;2.28;;
65045;SDS011;54657;52.022;5.534;2023-08-21T06:13:06;4.85;;;2.40;;
65045;SDS011;54657;52.022;5.534;2023-08-21T06:15:31;5.35;;;2.03;;
65045;SDS011;54657;52.022;5.534;2023-08-21T06:17:58;3.65;;;2.10;;
65045;SDS011;54657;52.022;5.534;2023-08-21T06:20:24;4.53;;;1.90;;
65045;SDS011;54657;52.022;5.534;2023-08-21T06:22:49;6.15;;;2.60;;
65045;SDS011;54657;52.022;5.534;2023-08-21T06:25:15;3.63;;;2.13;;
65045;SDS011;54657;52.022;5.534;2023-08-21T06:27:40;3.58;;;2.25;;
65045;SDS011;54657;52.022;5.534;2023-08-21T06:30:06;4.85;;;2.72;;
65045;SDS011;54657;52.022;5.534;2023-08-21T06:32:32;4.88;;;2.83;;
65045;SDS011;54657;52.022;5.534;2023-08-21T06:34:58;5.78;;;2.90;;
65045;SDS011;54657;52.022;5.534;2023-08-21T06:37:24;6.88;;;3.60;;
65045;SDS011;54657;52.022;5.534;2023-08-21T06:39:50;5.75;;;3.70;;
65045;SDS011;54657;52.022;5.534;2023-08-21T06:42:15;5.53;;;3.47;;
65045;SDS011;54657;52.022;5.534;2023-08-21T06:44:41;7.75;;;4.20;;
65045;SDS011;54657;52.022;5.534;2023-08-21T06:47:07;10.48;;;4.43;;
65045;SDS011;54657;52.022;5.534;2023-08-21T06:49:32;19.67;;;5.45;;
65045;SDS011;54657;52.022;5.534;2023-08-21T06:51:58;11.48;;;4.97;;
65045;SDS011;54657;52.022;5.534;2023-08-21T06:54:24;5.53;;;4.18;;
65045;SDS011;54657;52.022;5.534;2023-08-21T06:56:49;9.00;;;4.63;;
65045;SDS011;54657;52.022;5.534;2023-08-21T06:59:15;10.00;;;4.57;;
65045;SDS011;54657;52.022;5.534;2023-08-21T07:01:40;7.63;;;5.10;;
65045;SDS011;54657;52.022;5.534;2023-08-21T07:04:06;5.97;;;4.47;;
65045;SDS011;54657;52.022;5.534;2023-08-21T07:06:31;6.20;;;4.50;;
65045;SDS011;54657;52.022;5.534;2023-08-21T07:08:57;9.73;;;4.30;;
65045;SDS011;54657;52.022;5.534;2023-08-21T07:11:23;9.90;;;4.80;;
65045;SDS011;54657;52.022;5.534;2023-08-21T07:13:48;5.35;;;4.10;;
65045;SDS011;54657;52.022;5.534;2023-08-21T07:16:14;7.32;;;4.32;;
65045;SDS011;54657;52.022;5.534;2023-08-21T07:18:40;8.38;;;4.45;;
65045;SDS011;54657;52.022;5.534;2023-08-21T07:21:05;7.43;;;4.55;;
65045;SDS011;54657;52.022;5.534;2023-08-21T07:23:31;6.45;;;4.50;;
65045;SDS011;54657;52.022;5.534;2023-08-21T07:25:58;7.80;;;4.20;;
65045;SDS011;54657;52.022;5.534;2023-08-21T07:28:24;7.93;;;3.90;;
65045;SDS011;54657;52.022;5.534;2023-08-21T07:30:58;6.82;;;4.20;;
65045;SDS011;54657;52.022;5.534;2023-08-21T07:33:25;10.75;;;5.10;;
65045;SDS011;54657;52.022;5.534;2023-08-21T07:35:58;9.55;;;4.45;;
65045;SDS011;54657;52.022;5.534;2023-08-21T07:38:31;6.18;;;4.30;;
65045;SDS011;54657;52.022;5.534;2023-08-21T07:41:07;4.97;;;3.28;;
65045;SDS011;54657;52.022;5.534;2023-08-21T07:43:35;7.25;;;3.40;;
65045;SDS011;54657;52.022;5.534;2023-08-21T07:46:08;5.63;;;3.05;;
65045;SDS011;54657;52.022;5.534;2023-08-21T07:48:38;9.15;;;2.85;;
65045;SDS011;54657;52.022;5.534;2023-08-21T07:51:04;9.07;;;3.30;;
65045;SDS011;54657;52.022;5.534;2023-08-21T07:53:29;8.48;;;3.75;;
65045;SDS011;54657;52.022;5.534;2023-08-21T07:55:56;7.93;;;3.05;;
65045;SDS011;54657;52.022;5.534;2023-08-21T07:58:22;8.30;;;2.80;;
65045;SDS011;54657;52.022;5.534;2023-08-21T08:00:48;8.95;;;3.05;;
65045;SDS011;54657;52.022;5.534;2023-08-21T08:03:13;6.35;;;2.63;;
65045;SDS011;54657;52.022;5.534;2023-08-21T08:05:39;5.65;;;2.63;;
65045;SDS011;54657;52.022;5.534;2023-08-21T08:08:06;8.48;;;3.55;;
65045;SDS011;54657;52.022;5.534;2023-08-21T08:10:31;8.48;;;3.70;;
65045;SDS011;54657;52.022;5.534;2023-08-21T08:12:57;7.15;;;3.13;;
65045;SDS011;54657;52.022;5.534;2023-08-21T08:15:22;6.20;;;3.00;;
65045;SDS011;54657;52.022;5.534;2023-08-21T08:17:48;4.15;;;2.72;;
65045;SDS011;54657;52.022;5.534;2023-08-21T08:20:18;7.10;;;2.55;;
65045;SDS011;54657;52.022;5.534;2023-08-21T08:22:46;4.30;;;2.08;;
65045;SDS011;54657;52.022;5.534;2023-08-21T08:25:12;4.03;;;2.00;;
65045;SDS011;54657;52.022;5.534;2023-08-21T08:27:38;4.63;;;2.15;;
65045;SDS011;54657;52.022;5.534;2023-08-21T08:30:04;8.25;;;2.95;;
65045;SDS011;54657;52.022;5.534;2023-08-21T08:32:30;5.63;;;2.55;;
65045;SDS011;54657;52.022;5.534;2023-08-21T08:34:56;5.25;;;2.80;;
65045;SDS011;54657;52.022;5.534;2023-08-21T08:37:21;6.05;;;2.65;;
65045;SDS011;54657;52.022;5.534;2023-08-21T08:39:47;7.78;;;2.67;;
65045;SDS011;54657;52.022;5.534;2023-08-21T08:42:14;5.22;;;2.38;;
65045;SDS011;54657;52.022;5.534;2023-08-21T08:44:40;7.22;;;2.70;;
65045;SDS011;54657;52.022;5.534;2023-08-21T08:47:07;5.50;;;2.55;;
65045;SDS011;54657;52.022;5.534;2023-08-21T08:49:34;7.22;;;2.70;;
65045;SDS011;54657;52.022;5.534;2023-08-21T08:52:00;8.85;;;2.50;;
65045;SDS011;54657;52.022;5.534;2023-08-21T08:54:26;6.15;;;2.38;;
65045;SDS011;54657;52.022;5.534;2023-08-21T08:56:52;7.88;;;1.83;;
65045;SDS011;54657;52.022;5.534;2023-08-21T08:59:18;6.40;;;1.70;;
65045;SDS011;54657;52.022;5.534;2023-08-21T09:01:44;4.05;;;1.77;;
65045;SDS011;54657;52.022;5.534;2023-08-21T09:04:10;6.88;;;1.80;;
65045;SDS011;54657;52.022;5.534;2023-08-21T09:06:36;4.68;;;2.03;;
65045;SDS011;54657;52.022;5.534;2023-08-21T09:09:02;4.00;;;1.83;;
65045;SDS011;54657;52.022;5.534;2023-08-21T09:11:28;5.97;;;1.80;;
65045;SDS011;54657;52.022;5.534;2023-08-21T09:13:54;4.65;;;1.63;;
65045;SDS011;54657;52.022;5.534;2023-08-21T09:16:20;5.00;;;1.55;;
65045;SDS011;54657;52.022;5.534;2023-08-21T09:18:50;4.65;;;1.38;;
65045;SDS011;54657;52.022;5.534;2023-08-21T09:21:22;3.65;;;1.27;;
65045;SDS011;54657;52.022;5.534;2023-08-21T09:23:51;3.67;;;1.45;;
65045;SDS011;54657;52.022;5.534;2023-08-21T09:26:22;5.03;;;1.42;;
65045;SDS011;54657;52.022;5.534;2023-08-21T09:28:49;3.80;;;1.25;;
65045;SDS011;54657;52.022;5.534;2023-08-21T09:31:16;4.50;;;1.27;;
65045;SDS011;54657;52.022;5.534;2023-08-21T09:33:54;2.92;;;1.40;;
65045;SDS011;54657;52.022;5.534;2023-08-21T09:36:21;4.03;;;1.20;;
65045;SDS011;54657;52.022;5.534;2023-08-21T09:38:47;4.18;;;1.42;;
65045;SDS011;54657;52.022;5.534;2023-08-21T09:41:13;3.60;;;1.30;;
65045;SDS011;54657;52.022;5.534;2023-08-21T09:43:42;5.00;;;1.60;;
65045;SDS011;54657;52.022;5.534;2023-08-21T09:46:08;5.50;;;1.30;;
65045;SDS011;54657;52.022;5.534;2023-08-21T09:48:33;3.55;;;1.50;;
65045;SDS011;54657;52.022;5.534;2023-08-21T09:51:00;3.45;;;1.30;;
65045;SDS011;54657;52.022;5.534;2023-08-21T09:53:29;4.20;;;1.30;;
65045;SDS011;54657;52.022;5.534;2023-08-21T09:55:55;2.88;;;1.40;;
65045;SDS011;54657;52.022;5.534;2023-08-21T09:58:21;4.10;;;1.20;;
65045;SDS011;54657;52.022;5.534;2023-08-21T10:00:47;5.07;;;1.27;;
65045;SDS011;54657;52.022;5.534;2023-08-21T10:03:14;3.42;;;1.25;;
65045;SDS011;54657;52.022;5.534;2023-08-21T10:05:44;4.03;;;1.50;;
65045;SDS011;54657;52.022;5.534;2023-08-21T10:08:11;4.80;;;1.50;;
65045;SDS011;54657;52.022;5.534;2023-08-21T10:10:38;4.97;;;1.60;;
65045;SDS011;54657;52.022;5.534;2023-08-21T10:13:05;4.72;;;1.27;;
65045;SDS011;54657;52.022;5.534;2023-08-21T10:15:32;4.35;;;1.30;;
65045;SDS011;54657;52.022;5.534;2023-08-21T10:20:52;3.25;;;0.95;;
65045;SDS011;54657;52.022;5.534;2023-08-21T10:23:28;3.33;;;1.50;;
65045;SDS011;54657;52.022;5.534;2023-08-21T10:25:58;2.25;;;1.40;;
65045;SDS011;54657;52.022;5.534;2023-08-21T10:28:25;4.05;;;1.55;;
65045;SDS011;54657;52.022;5.534;2023-08-21T10:33:50;5.75;;;1.60;;
65045;SDS011;54657;52.022;5.534;2023-08-21T10:36:36;4.22;;;1.55;;
65045;SDS011;54657;52.022;5.534;2023-08-21T10:42:02;4.45;;;1.42;;
65045;SDS011;54657;52.022;5.534;2023-08-21T10:47:13;2.58;;;1.08;;
65045;SDS011;54657;52.022;5.534;2023-08-21T10:49:40;3.20;;;1.17;;
65045;SDS011;54657;52.022;5.534;2023-08-21T10:52:06;6.07;;;1.30;;
65045;SDS011;54657;52.022;5.534;2023-08-21T10:54:50;3.47;;;0.95;;
65045;SDS011;54657;52.022;5.534;2023-08-21T10:57:17;3.20;;;1.20;;
65045;SDS011;54657;52.022;5.534;2023-08-21T10:59:50;4.38;;;1.30;;
65045;SDS011;54657;52.022;5.534;2023-08-21T11:02:16;11.35;;;1.40;;
65045;SDS011;54657;52.022;5.534;2023-08-21T11:04:43;5.00;;;1.50;;
65045;SDS011;54657;52.022;5.534;2023-08-21T11:07:11;2.83;;;1.42;;
65045;SDS011;54657;52.022;5.534;2023-08-21T11:09:38;4.85;;;1.42;;
65045;SDS011;54657;52.022;5.534;2023-08-21T11:12:08;2.88;;;1.10;;
65045;SDS011;54657;52.022;5.534;2023-08-21T11:14:34;2.30;;;0.95;;
65045;SDS011;54657;52.022;5.534;2023-08-21T11:17:00;2.47;;;1.50;;
65045;SDS011;54657;52.022;5.534;2023-08-21T11:19:26;2.13;;;1.17;;
65045;SDS011;54657;52.022;5.534;2023-08-21T11:21:51;4.60;;;1.27;;
65045;SDS011;54657;52.022;5.534;2023-08-21T11:24:17;2.33;;;1.27;;
65045;SDS011;54657;52.022;5.534;2023-08-21T11:26:42;5.20;;;1.40;;
65045;SDS011;54657;52.022;5.534;2023-08-21T11:29:08;1.90;;;1.23;;
65045;SDS011;54657;52.022;5.534;2023-08-21T11:31:34;2.42;;;1.00;;
65045;SDS011;54657;52.022;5.534;2023-08-21T11:33:59;2.83;;;1.10;;
65045;SDS011;54657;52.022;5.534;2023-08-21T11:36:25;2.55;;;0.80;;
65045;SDS011;54657;52.022;5.534;2023-08-21T11:39:00;1.85;;;0.70;;
65045;SDS011;54657;52.022;5.534;2023-08-21T11:41:29;3.40;;;0.90;;
65045;SDS011;54657;52.022;5.534;2023-08-21T11:44:01;3.78;;;1.10;;
65045;SDS011;54657;52.022;5.534;2023-08-21T11:46:29;1.73;;;0.75;;
65045;SDS011;54657;52.022;5.534;2023-08-21T11:48:54;1.85;;;0.80;;
65045;SDS011;54657;52.022;5.534;2023-08-21T11:51:20;2.30;;;0.70;;
65045;SDS011;54657;52.022;5.534;2023-08-21T11:53:46;2.58;;;1.13;;
65045;SDS011;54657;52.022;5.534;2023-08-21T11:56:14;2.83;;;0.85;;
65045;SDS011;54657;52.022;5.534;2023-08-21T11:58:43;2.95;;;1.15;;
65045;SDS011;54657;52.022;5.534;2023-08-21T12:01:17;2.72;;;1.30;;
65045;SDS011;54657;52.022;5.534;2023-08-21T12:03:44;2.20;;;0.90;;
65045;SDS011;54657;52.022;5.534;2023-08-21T12:06:11;4.60;;;1.05;;
65045;SDS011;54657;52.022;5.534;2023-08-21T12:08:38;3.80;;;0.80;;
65045;SDS011;54657;52.022;5.534;2023-08-21T12:11:04;1.77;;;0.73;;
65045;SDS011;54657;52.022;5.534;2023-08-21T12:13:30;1.95;;;0.70;;
65045;SDS011;54657;52.022;5.534;2023-08-21T12:15:56;1.25;;;1.10;;
65045;SDS011;54657;52.022;5.534;2023-08-21T12:18:22;1.02;;;0.80;;
65045;SDS011;54657;52.022;5.534;2023-08-21T12:20:48;4.25;;;1.30;;
65045;SDS011;54657;52.022;5.534;2023-08-21T12:23:14;3.67;;;1.45;;
65045;SDS011;54657;52.022;5.534;2023-08-21T12:25:40;3.15;;;1.20;;
65045;SDS011;54657;52.022;5.534;2023-08-21T12:28:06;2.88;;;1.13;;
65045;SDS011;54657;52.022;5.534;2023-08-21T12:30:33;2.72;;;1.13;;
65045;SDS011;54657;52.022;5.534;2023-08-21T12:32:59;3.35;;;1.27;;
65045;SDS011;54657;52.022;5.534;2023-08-21T12:35:24;3.88;;;1.27;;
65045;SDS011;54657;52.022;5.534;2023-08-21T12:37:50;2.90;;;1.25;;
65045;SDS011;54657;52.022;5.534;2023-08-21T12:40:15;3.67;;;1.30;;
65045;SDS011;54657;52.022;5.534;2023-08-21T12:42:41;2.85;;;0.93;;
65045;SDS011;54657;52.022;5.534;2023-08-21T12:45:07;4.07;;;1.08;;
65045;SDS011;54657;52.022;5.534;2023-08-21T12:47:33;4.47;;;1.02;;
65045;SDS011;54657;52.022;5.534;2023-08-21T12:49:58;2.88;;;0.90;;
65045;SDS011;54657;52.022;5.534;2023-08-21T12:52:24;18.02;;;2.22;;
65045;SDS011;54657;52.022;5.534;2023-08-21T12:54:49;3.25;;;1.20;;
65045;SDS011;54657;52.022;5.534;2023-08-21T12:57:15;1.30;;;0.90;;
65045;SDS011;54657;52.022;5.534;2023-08-21T12:59:42;3.78;;;1.00;;
65045;SDS011;54657;52.022;5.534;2023-08-21T13:02:07;2.38;;;0.95;;
65045;SDS011;54657;52.022;5.534;2023-08-21T13:04:33;4.22;;;1.20;;
65045;SDS011;54657;52.022;5.534;2023-08-21T13:06:58;2.72;;;0.88;;
65045;SDS011;54657;52.022;5.534;2023-08-21T13:09:25;2.65;;;0.77;;
65045;SDS011;54657;52.022;5.534;2023-08-21T13:11:51;2.33;;;0.85;;
65045;SDS011;54657;52.022;5.534;2023-08-21T13:14:17;3.10;;;0.98;;
65045;SDS011;54657;52.022;5.534;2023-08-21T13:16:42;2.00;;;0.60;;
65045;SDS011;54657;52.022;5.534;2023-08-21T13:19:08;2.85;;;0.70;;
65045;SDS011;54657;52.022;5.534;2023-08-21T13:21:33;1.30;;;0.75;;
65045;SDS011;54657;52.022;5.534;2023-08-21T13:23:59;2.95;;;0.80;;
65045;SDS011;54657;52.022;5.534;2023-08-21T13:26:24;3.08;;;0.82;;
65045;SDS011;54657;52.022;5.534;2023-08-21T13:28:50;1.60;;;0.70;;
65045;SDS011;54657;52.022;5.534;2023-08-21T13:31:16;1.98;;;1.00;;
65045;SDS011;54657;52.022;5.534;2023-08-21T13:33:48;2.10;;;0.65;;
65045;SDS011;54657;52.022;5.534;2023-08-21T13:36:15;1.38;;;0.68;;
65045;SDS011;54657;52.022;5.534;2023-08-21T13:38:41;1.33;;;0.70;;
65045;SDS011;54657;52.022;5.534;2023-08-21T13:41:07;2.88;;;0.80;;
65045;SDS011;54657;52.022;5.534;2023-08-21T13:43:33;2.55;;;0.90;;
65045;SDS011;54657;52.022;5.534;2023-08-21T13:46:02;0.75;;;0.63;;
65045;SDS011;54657;52.022;5.534;2023-08-21T13:48:34;1.85;;;0.90;;
65045;SDS011;54657;52.022;5.534;2023-08-21T13:50:59;1.70;;;0.60;;
65045;SDS011;54657;52.022;5.534;2023-08-21T13:53:25;3.10;;;0.93;;
65045;SDS011;54657;52.022;5.534;2023-08-21T13:55:50;2.78;;;0.77;;
65045;SDS011;54657;52.022;5.534;2023-08-21T13:58:16;2.00;;;0.65;;
65045;SDS011;54657;52.022;5.534;2023-08-21T14:00:42;2.50;;;0.70;;
65045;SDS011;54657;52.022;5.534;2023-08-21T14:03:09;2.08;;;0.90;;
65045;SDS011;54657;52.022;5.534;2023-08-21T14:05:35;2.78;;;1.00;;
65045;SDS011;54657;52.022;5.534;2023-08-21T14:08:00;2.10;;;1.10;;
65045;SDS011;54657;52.022;5.534;2023-08-21T14:10:26;2.30;;;0.90;;
65045;SDS011;54657;52.022;5.534;2023-08-21T14:12:52;1.55;;;0.88;;
65045;SDS011;54657;52.022;5.534;2023-08-21T14:15:17;2.00;;;1.00;;
65045;SDS011;54657;52.022;5.534;2023-08-21T14:17:43;1.15;;;1.00;;
65045;SDS011;54657;52.022;5.534;2023-08-21T14:20:09;2.28;;;0.93;;
65045;SDS011;54657;52.022;5.534;2023-08-21T14:22:36;1.23;;;0.80;;
65045;SDS011;54657;52.022;5.534;2023-08-21T14:25:02;2.55;;;1.00;;
65045;SDS011;54657;52.022;5.534;2023-08-21T14:27:30;1.35;;;0.73;;
65045;SDS011;54657;52.022;5.534;2023-08-21T14:29:56;2.42;;;0.98;;
65045;SDS011;54657;52.022;5.534;2023-08-21T14:32:22;2.25;;;1.00;;
65045;SDS011;54657;52.022;5.534;2023-08-21T14:34:48;2.45;;;1.20;;
65045;SDS011;54657;52.022;5.534;2023-08-21T14:37:13;1.60;;;0.95;;
65045;SDS011;54657;52.022;5.534;2023-08-21T14:39:40;3.30;;;1.05;;
65045;SDS011;54657;52.022;5.534;2023-08-21T14:42:09;2.92;;;1.10;;
65045;SDS011;54657;52.022;5.534;2023-08-21T14:44:35;3.42;;;1.15;;
65045;SDS011;54657;52.022;5.534;2023-08-21T14:47:00;2.00;;;1.10;;
65045;SDS011;54657;52.022;5.534;2023-08-21T14:49:29;3.30;;;1.13;;
65045;SDS011;54657;52.022;5.534;2023-08-21T14:51:54;2.28;;;0.90;;
65045;SDS011;54657;52.022;5.534;2023-08-21T15:10:54;5.55;;;1.58;;
65045;SDS011;54657;52.022;5.534;2023-08-21T15:13:57;4.43;;;1.30;;
65045;SDS011;54657;52.022;5.534;2023-08-21T15:22:46;2.63;;;1.40;;
65045;SDS011;54657;52.022;5.534;2023-08-21T15:28:53;3.35;;;1.58;;